sensor_id;sensor_type;location;lat;lon;timestamp;P1;durP1;ratioP1;P2;durP2;ratioP2
65279;SDS011;51878;55.748;48.742;2023-04-09T00:04:25;9.30;;;3.80;;
65279;SDS011;51878;55.748;48.742;2023-04-09T00:09:27;7.20;;;3.85;;
65279;SDS011;51878;55.748;48.742;2023-04-09T00:14:29;8.27;;;3.83;;
65279;SDS011;51878;55.748;48.742;2023-04-09T00:19:31;6.68;;;4.03;;
65279;SDS011;51878;55.748;48.742;2023-04-09T00:24:34;6.40;;;3.63;;
65279;SDS011;51878;55.748;48.742;2023-04-09T00:29:36;9.30;;;4.13;;
65279;SDS011;51878;55.748;48.742;2023-04-09T00:34:38;15.38;;;3.72;;
65279;SDS011;51878;55.748;48.742;2023-04-09T00:39:40;9.48;;;3.40;;
65279;SDS011;51878;55.748;48.742;2023-04-09T00:44:42;8.80;;;3.70;;
65279;SDS011;51878;55.748;48.742;2023-04-09T00:49:44;5.82;;;3.25;;
65279;SDS011;51878;55.748;48.742;2023-04-09T00:54:48;6.57;;;3.10;;
65279;SDS011;51878;55.748;48.742;2023-04-09T00:59:50;6.60;;;3.88;;
65279;SDS011;51878;55.748;48.742;2023-04-09T01:04:53;8.80;;;3.92;;
65279;SDS011;51878;55.748;48.742;2023-04-09T01:10:00;6.03;;;3.03;;
65279;SDS011;51878;55.748;48.742;2023-04-09T01:15:19;12.65;;;3.80;;
65279;SDS011;51878;55.748;48.742;2023-04-09T01:20:31;6.40;;;3.30;;
65279;SDS011;51878;55.748;48.742;2023-04-09T01:30:58;5.78;;;3.20;;
65279;SDS011;51878;55.748;48.742;2023-04-09T01:36:04;5.55;;;3.20;;
65279;SDS011;51878;55.748;48.742;2023-04-09T01:41:10;4.72;;;2.88;;
65279;SDS011;51878;55.748;48.742;2023-04-09T01:46:16;11.60;;;3.55;;
65279;SDS011;51878;55.748;48.742;2023-04-09T01:51:20;5.95;;;2.97;;
65279;SDS011;51878;55.748;48.742;2023-04-09T01:56:22;8.77;;;3.85;;
65279;SDS011;51878;55.748;48.742;2023-04-09T02:12:26;5.88;;;3.15;;
65279;SDS011;51878;55.748;48.742;2023-04-09T02:17:32;5.07;;;3.13;;
65279;SDS011;51878;55.748;48.742;2023-04-09T02:22:34;6.20;;;3.13;;
65279;SDS011;51878;55.748;48.742;2023-04-09T02:27:36;7.63;;;3.33;;
65279;SDS011;51878;55.748;48.742;2023-04-09T02:32:38;5.85;;;3.45;;
65279;SDS011;51878;55.748;48.742;2023-04-09T02:37:40;4.88;;;3.20;;
65279;SDS011;51878;55.748;48.742;2023-04-09T02:42:43;5.43;;;3.42;;
65279;SDS011;51878;55.748;48.742;2023-04-09T02:47:45;7.22;;;3.50;;
65279;SDS011;51878;55.748;48.742;2023-04-09T02:52:47;6.40;;;3.50;;
65279;SDS011;51878;55.748;48.742;2023-04-09T02:57:49;5.20;;;3.40;;
65279;SDS011;51878;55.748;48.742;2023-04-09T03:02:51;5.45;;;3.17;;
65279;SDS011;51878;55.748;48.742;2023-04-09T03:07:53;6.43;;;3.72;;
65279;SDS011;51878;55.748;48.742;2023-04-09T03:12:55;5.68;;;3.72;;
65279;SDS011;51878;55.748;48.742;2023-04-09T03:17:57;6.18;;;3.28;;
65279;SDS011;51878;55.748;48.742;2023-04-09T03:22:59;11.52;;;4.10;;
65279;SDS011;51878;55.748;48.742;2023-04-09T03:28:02;7.28;;;3.55;;
65279;SDS011;51878;55.748;48.742;2023-04-09T03:33:07;7.03;;;3.85;;
65279;SDS011;51878;55.748;48.742;2023-04-09T03:38:09;7.43;;;3.40;;
65279;SDS011;51878;55.748;48.742;2023-04-09T03:43:11;13.88;;;4.35;;
65279;SDS011;51878;55.748;48.742;2023-04-09T03:48:13;10.45;;;5.40;;
65279;SDS011;51878;55.748;48.742;2023-04-09T03:53:15;10.60;;;5.07;;
65279;SDS011;51878;55.748;48.742;2023-04-09T03:58:17;13.35;;;5.95;;
65279;SDS011;51878;55.748;48.742;2023-04-09T04:03:19;14.90;;;5.97;;
65279;SDS011;51878;55.748;48.742;2023-04-09T04:08:21;12.20;;;6.68;;
65279;SDS011;51878;55.748;48.742;2023-04-09T04:13:23;9.48;;;5.70;;
65279;SDS011;51878;55.748;48.742;2023-04-09T04:18:26;10.35;;;6.03;;
65279;SDS011;51878;55.748;48.742;2023-04-09T04:23:28;8.25;;;4.70;;
65279;SDS011;51878;55.748;48.742;2023-04-09T04:28:30;8.75;;;4.95;;
65279;SDS011;51878;55.748;48.742;2023-04-09T04:33:32;12.73;;;4.90;;
65279;SDS011;51878;55.748;48.742;2023-04-09T04:38:43;7.13;;;4.10;;
65279;SDS011;51878;55.748;48.742;2023-04-09T04:43:45;7.30;;;4.28;;
65279;SDS011;51878;55.748;48.742;2023-04-09T04:48:48;8.55;;;4.10;;
65279;SDS011;51878;55.748;48.742;2023-04-09T04:53:50;9.40;;;4.40;;
65279;SDS011;51878;55.748;48.742;2023-04-09T04:58:52;8.77;;;4.38;;
65279;SDS011;51878;55.748;48.742;2023-04-09T05:03:54;10.75;;;4.15;;
65279;SDS011;51878;55.748;48.742;2023-04-09T05:08:56;8.15;;;4.82;;
65279;SDS011;51878;55.748;48.742;2023-04-09T05:13:58;11.35;;;4.53;;
65279;SDS011;51878;55.748;48.742;2023-04-09T05:19:04;9.02;;;5.25;;
65279;SDS011;51878;55.748;48.742;2023-04-09T05:24:09;13.05;;;5.10;;
65279;SDS011;51878;55.748;48.742;2023-04-09T05:29:11;12.50;;;5.75;;
65279;SDS011;51878;55.748;48.742;2023-04-09T05:34:14;21.10;;;4.60;;
65279;SDS011;51878;55.748;48.742;2023-04-09T05:39:16;8.98;;;4.45;;
65279;SDS011;51878;55.748;48.742;2023-04-09T05:44:18;9.20;;;4.32;;
65279;SDS011;51878;55.748;48.742;2023-04-09T05:49:20;6.57;;;3.72;;
65279;SDS011;51878;55.748;48.742;2023-04-09T05:54:22;9.73;;;4.13;;
65279;SDS011;51878;55.748;48.742;2023-04-09T05:59:25;9.30;;;4.20;;
65279;SDS011;51878;55.748;48.742;2023-04-09T06:04:27;10.60;;;4.50;;
65279;SDS011;51878;55.748;48.742;2023-04-09T06:09:29;9.48;;;4.55;;
65279;SDS011;51878;55.748;48.742;2023-04-09T06:14:31;6.82;;;4.10;;
65279;SDS011;51878;55.748;48.742;2023-04-09T06:19:34;6.95;;;4.40;;
65279;SDS011;51878;55.748;48.742;2023-04-09T06:24:38;7.90;;;3.85;;
65279;SDS011;51878;55.748;48.742;2023-04-09T06:29:41;12.65;;;4.22;;
65279;SDS011;51878;55.748;48.742;2023-04-09T06:34:43;10.15;;;4.18;;
65279;SDS011;51878;55.748;48.742;2023-04-09T06:39:45;8.02;;;3.95;;
65279;SDS011;51878;55.748;48.742;2023-04-09T06:45:00;6.53;;;3.33;;
65279;SDS011;51878;55.748;48.742;2023-04-09T06:50:09;5.97;;;3.20;;
65279;SDS011;51878;55.748;48.742;2023-04-09T06:55:11;20.85;;;3.78;;
65279;SDS011;51878;55.748;48.742;2023-04-09T07:00:17;7.10;;;3.40;;
65279;SDS011;51878;55.748;48.742;2023-04-09T07:05:19;4.85;;;2.92;;
65279;SDS011;51878;55.748;48.742;2023-04-09T07:10:22;23.75;;;3.63;;
65279;SDS011;51878;55.748;48.742;2023-04-09T07:15:24;8.30;;;3.08;;
65279;SDS011;51878;55.748;48.742;2023-04-09T07:20:26;6.53;;;2.67;;
65279;SDS011;51878;55.748;48.742;2023-04-09T07:25:28;4.15;;;2.78;;
65279;SDS011;51878;55.748;48.742;2023-04-09T07:30:31;7.00;;;2.95;;
65279;SDS011;51878;55.748;48.742;2023-04-09T07:35:33;6.47;;;2.83;;
65279;SDS011;51878;55.748;48.742;2023-04-09T07:40:36;6.38;;;3.17;;
65279;SDS011;51878;55.748;48.742;2023-04-09T07:45:38;7.35;;;3.08;;
65279;SDS011;51878;55.748;48.742;2023-04-09T07:50:45;5.03;;;2.92;;
65279;SDS011;51878;55.748;48.742;2023-04-09T08:00:57;6.35;;;2.90;;
65279;SDS011;51878;55.748;48.742;2023-04-09T08:06:00;7.10;;;3.20;;
65279;SDS011;51878;55.748;48.742;2023-04-09T08:11:02;4.30;;;2.60;;
65279;SDS011;51878;55.748;48.742;2023-04-09T08:16:05;8.85;;;2.30;;
65279;SDS011;51878;55.748;48.742;2023-04-09T08:21:12;5.60;;;3.38;;
65279;SDS011;51878;55.748;48.742;2023-04-09T08:26:14;12.93;;;4.55;;
65279;SDS011;51878;55.748;48.742;2023-04-09T08:31:16;5.72;;;3.17;;
65279;SDS011;51878;55.748;48.742;2023-04-09T08:36:19;7.95;;;3.33;;
65279;SDS011;51878;55.748;48.742;2023-04-09T08:41:22;4.95;;;2.72;;
65279;SDS011;51878;55.748;48.742;2023-04-09T08:46:26;5.35;;;3.13;;
65279;SDS011;51878;55.748;48.742;2023-04-09T08:51:29;8.80;;;3.38;;
65279;SDS011;51878;55.748;48.742;2023-04-09T08:56:32;4.03;;;2.60;;
65279;SDS011;51878;55.748;48.742;2023-04-09T09:01:34;5.35;;;2.33;;
65279;SDS011;51878;55.748;48.742;2023-04-09T09:06:38;6.18;;;2.55;;
65279;SDS011;51878;55.748;48.742;2023-04-09T09:11:42;3.50;;;2.40;;
65279;SDS011;51878;55.748;48.742;2023-04-09T09:21:57;4.35;;;2.67;;
65279;SDS011;51878;55.748;48.742;2023-04-09T09:27:01;4.07;;;2.70;;
65279;SDS011;51878;55.748;48.742;2023-04-09T09:32:03;4.38;;;2.90;;
65279;SDS011;51878;55.748;48.742;2023-04-09T09:37:26;5.80;;;3.08;;
65279;SDS011;51878;55.748;48.742;2023-04-09T09:42:30;6.40;;;3.03;;
65279;SDS011;51878;55.748;48.742;2023-04-09T09:47:33;9.35;;;4.50;;
65279;SDS011;51878;55.748;48.742;2023-04-09T09:52:37;14.48;;;4.45;;
65279;SDS011;51878;55.748;48.742;2023-04-09T09:57:41;13.38;;;4.32;;
65279;SDS011;51878;55.748;48.742;2023-04-09T10:02:47;7.03;;;3.90;;
65279;SDS011;51878;55.748;48.742;2023-04-09T10:07:57;6.90;;;4.80;;
65279;SDS011;51878;55.748;48.742;2023-04-09T10:13:01;7.55;;;5.00;;
65279;SDS011;51878;55.748;48.742;2023-04-09T10:18:08;6.75;;;4.07;;
65279;SDS011;51878;55.748;48.742;2023-04-09T10:23:13;6.68;;;4.18;;
65279;SDS011;51878;55.748;48.742;2023-04-09T10:28:22;6.90;;;4.40;;
65279;SDS011;51878;55.748;48.742;2023-04-09T10:33:24;10.02;;;4.60;;
65279;SDS011;51878;55.748;48.742;2023-04-09T10:43:39;4.88;;;4.15;;
65279;SDS011;51878;55.748;48.742;2023-04-09T10:48:41;8.98;;;3.80;;
65279;SDS011;51878;55.748;48.742;2023-04-09T10:53:44;8.20;;;3.58;;
65279;SDS011;51878;55.748;48.742;2023-04-09T10:58:47;10.77;;;3.90;;
65279;SDS011;51878;55.748;48.742;2023-04-09T11:04:05;8.38;;;4.03;;
65279;SDS011;51878;55.748;48.742;2023-04-09T11:09:11;9.00;;;4.18;;
65279;SDS011;51878;55.748;48.742;2023-04-09T11:14:18;5.93;;;3.78;;
65279;SDS011;51878;55.748;48.742;2023-04-09T11:19:20;6.45;;;3.63;;
65279;SDS011;51878;55.748;48.742;2023-04-09T11:24:23;8.15;;;3.50;;
65279;SDS011;51878;55.748;48.742;2023-04-09T11:29:26;5.65;;;3.22;;
65279;SDS011;51878;55.748;48.742;2023-04-09T11:34:28;7.13;;;3.40;;
65279;SDS011;51878;55.748;48.742;2023-04-09T11:39:31;9.30;;;3.78;;
65279;SDS011;51878;55.748;48.742;2023-04-09T11:44:37;6.05;;;3.22;;
65279;SDS011;51878;55.748;48.742;2023-04-09T11:49:39;7.72;;;3.28;;
65279;SDS011;51878;55.748;48.742;2023-04-09T11:54:41;5.00;;;3.33;;
65279;SDS011;51878;55.748;48.742;2023-04-09T11:59:48;8.73;;;3.83;;
65279;SDS011;51878;55.748;48.742;2023-04-09T12:04:50;5.72;;;3.38;;
65279;SDS011;51878;55.748;48.742;2023-04-09T12:09:53;3.55;;;3.10;;
65279;SDS011;51878;55.748;48.742;2023-04-09T12:14:55;7.80;;;3.40;;
65279;SDS011;51878;55.748;48.742;2023-04-09T12:19:59;9.70;;;3.90;;
65279;SDS011;51878;55.748;48.742;2023-04-09T12:25:03;6.85;;;3.45;;
65279;SDS011;51878;55.748;48.742;2023-04-09T12:30:05;5.55;;;3.53;;
65279;SDS011;51878;55.748;48.742;2023-04-09T12:35:08;5.97;;;3.75;;
65279;SDS011;51878;55.748;48.742;2023-04-09T12:40:10;5.70;;;3.47;;
65279;SDS011;51878;55.748;48.742;2023-04-09T12:45:16;9.93;;;3.35;;
65279;SDS011;51878;55.748;48.742;2023-04-09T12:50:19;8.85;;;3.13;;
65279;SDS011;51878;55.748;48.742;2023-04-09T12:55:21;7.47;;;3.30;;
65279;SDS011;51878;55.748;48.742;2023-04-09T13:00:45;12.10;;;3.55;;
65279;SDS011;51878;55.748;48.742;2023-04-09T13:05:47;7.07;;;3.17;;
65279;SDS011;51878;55.748;48.742;2023-04-09T13:10:49;6.03;;;3.33;;
65279;SDS011;51878;55.748;48.742;2023-04-09T13:16:11;6.13;;;3.40;;
65279;SDS011;51878;55.748;48.742;2023-04-09T13:21:34;5.68;;;3.33;;
65279;SDS011;51878;55.748;48.742;2023-04-09T13:26:36;9.10;;;3.15;;
65279;SDS011;51878;55.748;48.742;2023-04-09T13:31:51;5.95;;;3.15;;
65279;SDS011;51878;55.748;48.742;2023-04-09T13:36:53;5.85;;;2.90;;
65279;SDS011;51878;55.748;48.742;2023-04-09T13:41:58;3.67;;;2.63;;
65279;SDS011;51878;55.748;48.742;2023-04-09T13:47:21;6.00;;;3.40;;
65279;SDS011;51878;55.748;48.742;2023-04-09T13:52:43;7.18;;;3.80;;
65279;SDS011;51878;55.748;48.742;2023-04-09T13:58:04;11.48;;;4.35;;
65279;SDS011;51878;55.748;48.742;2023-04-09T14:03:06;13.80;;;6.18;;
65279;SDS011;51878;55.748;48.742;2023-04-09T14:08:08;15.98;;;6.10;;
65279;SDS011;51878;55.748;48.742;2023-04-09T14:13:10;9.70;;;5.82;;
65279;SDS011;51878;55.748;48.742;2023-04-09T14:18:13;10.15;;;6.05;;
65279;SDS011;51878;55.748;48.742;2023-04-09T14:23:24;10.77;;;6.20;;
65279;SDS011;51878;55.748;48.742;2023-04-09T14:28:29;8.13;;;5.70;;
65279;SDS011;51878;55.748;48.742;2023-04-09T14:33:32;10.85;;;5.90;;
65279;SDS011;51878;55.748;48.742;2023-04-09T14:38:34;10.55;;;5.50;;
65279;SDS011;51878;55.748;48.742;2023-04-09T14:43:37;10.63;;;4.70;;
65279;SDS011;51878;55.748;48.742;2023-04-09T14:48:40;6.72;;;4.18;;
65279;SDS011;51878;55.748;48.742;2023-04-09T14:53:42;11.15;;;4.80;;
65279;SDS011;51878;55.748;48.742;2023-04-09T14:58:44;8.95;;;6.22;;
65279;SDS011;51878;55.748;48.742;2023-04-09T15:03:46;10.88;;;5.78;;
65279;SDS011;51878;55.748;48.742;2023-04-09T15:08:48;10.60;;;5.07;;
65279;SDS011;51878;55.748;48.742;2023-04-09T15:13:50;9.98;;;5.32;;
65279;SDS011;51878;55.748;48.742;2023-04-09T15:18:53;9.70;;;4.30;;
65279;SDS011;51878;55.748;48.742;2023-04-09T15:23:58;6.72;;;4.47;;
65279;SDS011;51878;55.748;48.742;2023-04-09T15:29:01;8.75;;;4.78;;
65279;SDS011;51878;55.748;48.742;2023-04-09T15:34:07;9.35;;;4.80;;
65279;SDS011;51878;55.748;48.742;2023-04-09T15:39:09;13.75;;;3.88;;
65279;SDS011;51878;55.748;48.742;2023-04-09T15:44:17;8.82;;;4.47;;
65279;SDS011;51878;55.748;48.742;2023-04-09T15:49:19;7.15;;;4.18;;
65279;SDS011;51878;55.748;48.742;2023-04-09T15:54:21;8.18;;;4.15;;
65279;SDS011;51878;55.748;48.742;2023-04-09T15:59:23;11.40;;;4.95;;
65279;SDS011;51878;55.748;48.742;2023-04-09T16:04:26;6.85;;;4.28;;
65279;SDS011;51878;55.748;48.742;2023-04-09T16:09:28;8.98;;;4.45;;
65279;SDS011;51878;55.748;48.742;2023-04-09T16:14:30;8.35;;;4.50;;
65279;SDS011;51878;55.748;48.742;2023-04-09T16:19:32;6.63;;;4.00;;
65279;SDS011;51878;55.748;48.742;2023-04-09T16:24:34;6.30;;;4.07;;
65279;SDS011;51878;55.748;48.742;2023-04-09T16:29:36;17.00;;;7.70;;
65279;SDS011;51878;55.748;48.742;2023-04-09T16:34:39;8.27;;;4.57;;
65279;SDS011;51878;55.748;48.742;2023-04-09T16:39:41;12.07;;;4.75;;
65279;SDS011;51878;55.748;48.742;2023-04-09T16:44:43;9.52;;;4.70;;
65279;SDS011;51878;55.748;48.742;2023-04-09T16:49:45;7.72;;;4.30;;
65279;SDS011;51878;55.748;48.742;2023-04-09T16:54:47;6.63;;;3.95;;
65279;SDS011;51878;55.748;48.742;2023-04-09T16:59:50;14.02;;;4.65;;
65279;SDS011;51878;55.748;48.742;2023-04-09T17:04:52;7.85;;;4.35;;
65279;SDS011;51878;55.748;48.742;2023-04-09T17:09:54;8.75;;;4.85;;
65279;SDS011;51878;55.748;48.742;2023-04-09T17:14:57;10.07;;;4.28;;
65279;SDS011;51878;55.748;48.742;2023-04-09T17:20:07;7.90;;;4.45;;
65279;SDS011;51878;55.748;48.742;2023-04-09T17:25:10;8.95;;;5.15;;
65279;SDS011;51878;55.748;48.742;2023-04-09T17:30:12;8.55;;;4.53;;
65279;SDS011;51878;55.748;48.742;2023-04-09T17:35:14;12.98;;;4.65;;
65279;SDS011;51878;55.748;48.742;2023-04-09T17:40:17;7.13;;;4.30;;
65279;SDS011;51878;55.748;48.742;2023-04-09T17:45:20;10.98;;;4.82;;
65279;SDS011;51878;55.748;48.742;2023-04-09T17:50:22;6.95;;;4.22;;
65279;SDS011;51878;55.748;48.742;2023-04-09T17:55:24;8.05;;;4.78;;
65279;SDS011;51878;55.748;48.742;2023-04-09T18:00:27;12.18;;;6.00;;
65279;SDS011;51878;55.748;48.742;2023-04-09T18:05:30;8.65;;;5.00;;
65279;SDS011;51878;55.748;48.742;2023-04-09T18:10:32;9.52;;;5.15;;
65279;SDS011;51878;55.748;48.742;2023-04-09T18:15:35;9.25;;;4.53;;
65279;SDS011;51878;55.748;48.742;2023-04-09T18:20:37;9.55;;;4.53;;
65279;SDS011;51878;55.748;48.742;2023-04-09T18:25:39;7.05;;;4.65;;
65279;SDS011;51878;55.748;48.742;2023-04-09T18:30:42;7.32;;;4.47;;
65279;SDS011;51878;55.748;48.742;2023-04-09T18:35:44;11.75;;;4.78;;
65279;SDS011;51878;55.748;48.742;2023-04-09T18:40:46;6.00;;;4.43;;
65279;SDS011;51878;55.748;48.742;2023-04-09T18:45:56;8.05;;;4.88;;
65279;SDS011;51878;55.748;48.742;2023-04-09T18:50:59;8.80;;;4.45;;
65279;SDS011;51878;55.748;48.742;2023-04-09T18:56:03;12.65;;;4.60;;
65279;SDS011;51878;55.748;48.742;2023-04-09T19:01:09;10.80;;;4.63;;
65279;SDS011;51878;55.748;48.742;2023-04-09T19:06:15;7.90;;;4.63;;
65279;SDS011;51878;55.748;48.742;2023-04-09T19:11:19;7.90;;;4.88;;
65279;SDS011;51878;55.748;48.742;2023-04-09T19:16:22;9.75;;;4.68;;
65279;SDS011;51878;55.748;48.742;2023-04-09T19:21:24;9.48;;;5.10;;
65279;SDS011;51878;55.748;48.742;2023-04-09T19:26:26;7.93;;;4.38;;
65279;SDS011;51878;55.748;48.742;2023-04-09T19:31:28;6.43;;;4.10;;
65279;SDS011;51878;55.748;48.742;2023-04-09T19:36:30;7.35;;;3.70;;
65279;SDS011;51878;55.748;48.742;2023-04-09T19:41:34;7.75;;;4.22;;
65279;SDS011;51878;55.748;48.742;2023-04-09T19:46:36;7.10;;;3.58;;
65279;SDS011;51878;55.748;48.742;2023-04-09T19:51:38;8.43;;;3.75;;
65279;SDS011;51878;55.748;48.742;2023-04-09T19:56:41;9.02;;;4.05;;
65279;SDS011;51878;55.748;48.742;2023-04-09T20:01:43;6.93;;;3.92;;
65279;SDS011;51878;55.748;48.742;2023-04-09T20:06:45;6.35;;;4.10;;
65279;SDS011;51878;55.748;48.742;2023-04-09T20:11:49;12.38;;;5.18;;
65279;SDS011;51878;55.748;48.742;2023-04-09T20:16:52;11.25;;;5.78;;
65279;SDS011;51878;55.748;48.742;2023-04-09T20:21:55;8.18;;;5.18;;
65279;SDS011;51878;55.748;48.742;2023-04-09T20:27:02;12.10;;;5.93;;
65279;SDS011;51878;55.748;48.742;2023-04-09T20:32:05;8.77;;;5.50;;
65279;SDS011;51878;55.748;48.742;2023-04-09T20:37:07;10.10;;;5.32;;
65279;SDS011;51878;55.748;48.742;2023-04-09T20:42:10;13.05;;;5.78;;
65279;SDS011;51878;55.748;48.742;2023-04-09T20:47:12;15.65;;;5.53;;
65279;SDS011;51878;55.748;48.742;2023-04-09T20:52:15;11.90;;;6.22;;
65279;SDS011;51878;55.748;48.742;2023-04-09T20:57:18;13.35;;;7.05;;
65279;SDS011;51878;55.748;48.742;2023-04-09T21:02:20;14.93;;;7.32;;
65279;SDS011;51878;55.748;48.742;2023-04-09T21:07:22;12.23;;;6.57;;
65279;SDS011;51878;55.748;48.742;2023-04-09T21:12:24;14.23;;;6.88;;
65279;SDS011;51878;55.748;48.742;2023-04-09T21:17:28;12.50;;;7.55;;
65279;SDS011;51878;55.748;48.742;2023-04-09T21:22:32;18.00;;;8.10;;
65279;SDS011;51878;55.748;48.742;2023-04-09T21:27:36;11.65;;;7.38;;
65279;SDS011;51878;55.748;48.742;2023-04-09T21:32:38;12.60;;;7.47;;
65279;SDS011;51878;55.748;48.742;2023-04-09T21:37:40;17.98;;;7.40;;
65279;SDS011;51878;55.748;48.742;2023-04-09T21:42:42;13.02;;;7.50;;
65279;SDS011;51878;55.748;48.742;2023-04-09T21:47:44;16.75;;;7.65;;
65279;SDS011;51878;55.748;48.742;2023-04-09T21:52:46;15.18;;;8.15;;
65279;SDS011;51878;55.748;48.742;2023-04-09T21:57:48;19.65;;;8.18;;
65279;SDS011;51878;55.748;48.742;2023-04-09T22:02:54;11.82;;;7.07;;
65279;SDS011;51878;55.748;48.742;2023-04-09T22:08:01;13.73;;;7.13;;
65279;SDS011;51878;55.748;48.742;2023-04-09T22:13:04;12.95;;;8.30;;
65279;SDS011;51878;55.748;48.742;2023-04-09T22:18:06;12.93;;;7.30;;
65279;SDS011;51878;55.748;48.742;2023-04-09T22:23:08;17.55;;;7.43;;
65279;SDS011;51878;55.748;48.742;2023-04-09T22:28:12;10.13;;;6.68;;
65279;SDS011;51878;55.748;48.742;2023-04-09T22:33:15;11.48;;;6.32;;
65279;SDS011;51878;55.748;48.742;2023-04-09T22:38:17;12.85;;;6.88;;
65279;SDS011;51878;55.748;48.742;2023-04-09T22:43:20;15.10;;;7.35;;
65279;SDS011;51878;55.748;48.742;2023-04-09T22:48:23;16.48;;;7.00;;
65279;SDS011;51878;55.748;48.742;2023-04-09T22:53:25;13.15;;;7.03;;
65279;SDS011;51878;55.748;48.742;2023-04-09T22:58:28;13.88;;;6.40;;
65279;SDS011;51878;55.748;48.742;2023-04-09T23:03:30;11.90;;;6.30;;
65279;SDS011;51878;55.748;48.742;2023-04-09T23:08:32;18.60;;;7.57;;
65279;SDS011;51878;55.748;48.742;2023-04-09T23:13:34;14.40;;;7.57;;
65279;SDS011;51878;55.748;48.742;2023-04-09T23:18:36;11.57;;;8.00;;
65279;SDS011;51878;55.748;48.742;2023-04-09T23:23:39;11.35;;;7.60;;
65279;SDS011;51878;55.748;48.742;2023-04-09T23:28:41;13.43;;;8.20;;
65279;SDS011;51878;55.748;48.742;2023-04-09T23:33:43;13.13;;;7.97;;
65279;SDS011;51878;55.748;48.742;2023-04-09T23:38:46;16.95;;;8.18;;
65279;SDS011;51878;55.748;48.742;2023-04-09T23:43:48;16.58;;;7.35;;
65279;SDS011;51878;55.748;48.742;2023-04-09T23:48:51;14.43;;;7.30;;
65279;SDS011;51878;55.748;48.742;2023-04-09T23:53:53;12.52;;;7.30;;
65279;SDS011;51878;55.748;48.742;2023-04-09T23:58:55;12.23;;;7.15;;
